Time;durP1;ratioP1;P1;durP2;ratioP2;P2;SDS_P1;SDS_P2;PMS_P1;PMS_P2;Temp;Humidity;BMP_temperature;BMP_pressure;BME280_temperature;BME280_humidity;BME280_pressure;Samples;Min_cycle;Max_cycle;Signal;HPM_P1;HPM_P2
2021/06/05 00:00:07;;;;;;;13.27;7.97;;;18.50;99.90;;;;;;4966801;28;20478;-50
2021/06/05 00:02:35;;;;;;;12.00;8.77;;;18.50;99.90;;;;;;4964511;28;20766;-50
2021/06/05 00:05:01;;;;;;;10.60;7.43;;;18.50;99.90;;;;;;4966052;28;20439;-50
2021/06/05 00:20:30;;;;;;;8.40;7.67;;;18.30;99.90;;;;;;5352671;23;20496;-52
2021/06/05 00:22:58;;;;;;;8.70;6.87;;;18.30;99.90;;;;;;4982982;28;20435;-51
2021/06/05 00:25:25;;;;;;;9.40;8.20;;;18.30;99.90;;;;;;4985950;28;20443;-49
2021/06/05 00:30:28;;;;;;;8.00;7.30;;;18.20;99.90;;;;;;6088521;23;20377;-49
2021/06/05 00:32:57;;;;;;;8.70;7.23;;;17.40;99.90;;;;;;5073413;28;20466;-53
2021/06/05 00:35:27;;;;;;;7.83;6.90;;;18.20;99.90;;;;;;5067538;28;20446;-53
2021/06/05 00:37:54;;;;;;;8.50;7.23;;;18.90;99.90;;;;;;5070790;28;20439;-52
2021/06/05 00:40:22;;;;;;;15.77;9.53;;;18.10;99.90;;;;;;5058968;28;20443;-54
2021/06/05 00:42:48;;;;;;;8.53;7.73;;;18.10;99.90;;;;;;5060927;28;20517;-54
2021/06/05 00:45:16;;;;;;;11.93;7.37;;;18.10;99.90;;;;;;5058628;28;21010;-50
2021/06/05 00:47:43;;;;;;;8.53;7.07;;;18.10;99.90;;;;;;5058386;28;20443;-54
2021/06/05 00:50:12;;;;;;;8.03;7.27;;;18.10;99.90;;;;;;5056511;28;20461;-51
2021/06/05 00:52:42;;;;;;;7.90;7.10;;;18.10;99.90;;;;;;5060252;28;20443;-53
2021/06/05 01:02:57;;;;;;;11.83;8.00;;;18.10;99.90;;;;;;5189962;23;20468;-53
2021/06/05 01:05:24;;;;;;;8.40;7.43;;;18.10;99.90;;;;;;5005185;28;20453;-49
2021/06/05 01:18:19;;;;;;;8.93;6.40;;;17.90;99.90;;;;;;5278840;22;20490;-52
2021/06/05 01:20:54;;;;;;;9.40;7.17;;;17.80;99.90;;;;;;4987991;28;20442;-54
2021/06/05 01:23:27;;;;;;;8.13;6.90;;;17.80;99.90;;;;;;4976291;28;20557;-53
2021/06/05 01:33:46;;;;;;;8.93;7.43;;;17.70;99.90;;;;;;5312008;23;20477;-53
2021/06/05 01:36:14;;;;;;;7.80;7.00;;;17.70;99.90;;;;;;4996953;28;20446;-51
2021/06/05 01:38:44;;;;;;;8.73;6.87;;;17.70;99.90;;;;;;5896496;23;20452;-54
2021/06/05 01:41:14;;;;;;;8.80;6.37;;;17.70;99.90;;;;;;4996842;28;20446;-53
2021/06/05 01:51:28;;;;;;;9.60;6.97;;;17.60;99.90;;;;;;6051890;23;21612;-54
2021/06/05 01:53:58;;;;;;;10.77;7.33;;;17.50;99.90;;;;;;4995984;28;20561;-53
2021/06/05 01:59:00;;;;;;;7.20;6.50;;;17.50;99.90;;;;;;5962940;23;20449;-52
2021/06/05 02:01:36;;;;;;;7.63;6.93;;;17.40;99.90;;;;;;5846532;23;20466;-51
2021/06/05 02:04:02;;;;;;;10.13;6.90;;;17.40;99.90;;;;;;4976534;28;20465;-54
2021/06/05 02:11:45;;;;;;;9.97;7.13;;;17.40;99.90;;;;;;5547998;23;20493;-53
2021/06/05 02:14:16;;;;;;;7.63;6.53;;;17.40;99.90;;;;;;4998158;28;20434;-52
2021/06/05 02:19:22;;;;;;;10.10;7.67;;;17.40;99.90;;;;;;5860210;23;20497;-52
2021/06/05 02:21:50;;;;;;;9.60;7.60;;;17.40;99.90;;;;;;4996005;28;20445;-53
2021/06/05 02:24:20;;;;;;;10.67;7.40;;;17.40;99.90;;;;;;4996139;28;20456;-51
2021/06/05 02:26:50;;;;;;;8.37;6.60;;;17.40;99.90;;;;;;4995983;28;20513;-50
2021/06/05 02:29:23;;;;;;;10.03;7.43;;;17.40;99.90;;;;;;4997984;28;20504;-53
2021/06/05 02:31:50;;;;;;;9.90;7.53;;;17.30;99.90;;;;;;4995457;28;20768;-52
2021/06/05 02:34:22;;;;;;;8.33;7.03;;;17.40;99.90;;;;;;4995427;28;20442;-52
2021/06/05 02:36:51;;;;;;;9.33;7.00;;;17.40;99.90;;;;;;4995824;28;20932;-55
2021/06/05 02:39:19;;;;;;;6.90;6.20;;;17.40;99.90;;;;;;4994627;28;20485;-55
2021/06/05 02:41:50;;;;;;;6.93;6.20;;;17.40;99.90;;;;;;4994378;28;20461;-55
2021/06/05 02:44:20;;;;;;;9.00;7.20;;;17.50;99.90;;;;;;4994949;28;20453;-53
2021/06/05 02:46:48;;;;;;;14.13;7.57;;;17.40;99.90;;;;;;4994211;28;20783;-52
2021/06/05 02:51:52;;;;;;;8.17;7.13;;;17.40;99.90;;;;;;5037972;23;20559;-52
2021/06/05 02:54:20;;;;;;;8.63;6.90;;;17.30;99.90;;;;;;4996656;28;20442;-50
2021/06/05 02:56:48;;;;;;;8.73;7.30;;;17.40;99.90;;;;;;4994193;28;20783;-48
2021/06/05 03:04:25;;;;;;;8.57;7.50;;;17.30;99.90;;;;;;6075850;23;20214;-48
2021/06/05 03:44:42;;;;;;;10.40;9.30;;;17.10;99.90;;;;;;5874015;23;20486;-51
2021/06/05 03:47:08;;;;;;;9.10;7.63;;;17.00;99.90;;;;;;5019895;28;20438;-47
2021/06/05 03:49:34;;;;;;;8.90;7.10;;;17.10;99.90;;;;;;5017608;28;20438;-48
2021/06/05 03:52:01;;;;;;;10.83;8.00;;;17.10;99.90;;;;;;4997270;28;20466;-52
2021/06/05 03:54:27;;;;;;;15.30;7.57;;;17.10;99.90;;;;;;4997394;28;20472;-51
2021/06/05 03:56:53;;;;;;;11.73;7.73;;;17.20;99.90;;;;;;4997225;28;20446;-52
2021/06/05 03:59:20;;;;;;;8.17;7.33;;;17.20;99.90;;;;;;4996982;28;20501;-49
2021/06/05 04:01:48;;;;;;;8.00;7.20;;;17.20;99.90;;;;;;4996883;28;20779;-54
2021/06/05 04:04:14;;;;;;;8.13;7.27;;;17.20;99.90;;;;;;4997243;28;20481;-54
2021/06/05 04:06:40;;;;;;;10.23;7.90;;;17.20;99.90;;;;;;4997261;28;20452;-53
2021/06/05 05:32:18;;;;;;;7.27;6.50;;;19.10;99.90;;;;;;5172037;23;20998;-53
2021/06/05 05:34:44;;;;;;;9.00;6.50;;;19.20;99.90;;;;;;4975862;28;20435;-52
2021/06/05 05:37:10;;;;;;;8.40;6.20;;;19.30;99.90;;;;;;4975853;28;20451;-51
2021/06/05 05:39:36;;;;;;;6.77;5.97;;;19.40;99.90;;;;;;4975800;28;20541;-55
2021/06/05 05:42:03;;;;;;;6.80;6.10;;;19.40;99.90;;;;;;4975827;28;20451;-51
2021/06/05 05:44:29;;;;;;;9.10;5.47;;;19.50;99.90;;;;;;4976659;28;20462;-54
2021/06/05 05:46:55;;;;;;;9.67;6.00;;;19.60;99.90;;;;;;4976570;28;20457;-52
2021/06/05 05:49:25;;;;;;;7.47;6.77;;;19.70;99.90;;;;;;4975509;28;20455;-52
2021/06/05 05:51:51;;;;;;;6.57;5.97;;;19.70;99.90;;;;;;4975561;28;20450;-46
2021/06/05 05:54:17;;;;;;;6.70;5.60;;;19.80;99.90;;;;;;4975501;28;20455;-53
2021/06/05 05:56:43;;;;;;;10.03;6.20;;;19.90;99.90;;;;;;4976042;28;20458;-54
2021/06/05 05:59:14;;;;;;;6.40;5.67;;;19.90;99.90;;;;;;4973663;28;20482;-55
2021/06/05 06:01:41;;;;;;;6.47;5.77;;;20.10;99.90;;;;;;4976775;28;20461;-51
2021/06/05 06:04:07;;;;;;;6.30;5.37;;;20.10;99.90;;;;;;4957719;28;20472;-54
2021/06/05 06:06:34;;;;;;;5.87;5.30;;;20.20;99.90;;;;;;4956275;29;20464;-49
2021/06/05 06:09:01;;;;;;;5.50;5.00;;;20.30;99.90;;;;;;4961765;28;20760;-48
2021/06/05 06:11:27;;;;;;;6.63;5.93;;;20.40;99.90;;;;;;4959354;28;20456;-55
2021/06/05 06:13:57;;;;;;;7.97;6.27;;;20.40;99.90;;;;;;4956860;29;20455;-49
2021/06/05 06:16:24;;;;;;;5.83;5.33;;;20.90;99.90;;;;;;4956386;29;20451;-49
2021/06/05 06:18:50;;;;;;;9.13;5.60;;;20.60;99.90;;;;;;4956909;29;20843;-54
2021/06/05 06:21:19;;;;;;;8.20;6.77;;;20.70;99.90;;;;;;4956736;29;20495;-51
2021/06/05 06:23:49;;;;;;;6.00;4.70;;;20.80;99.90;;;;;;4956641;29;20471;-51
2021/06/05 06:26:17;;;;;;;9.27;5.50;;;20.80;99.90;;;;;;4956470;29;20942;-52
2021/06/05 06:28:43;;;;;;;7.03;6.07;;;20.80;99.90;;;;;;4958964;28;20810;-49
2021/06/05 06:31:11;;;;;;;8.23;5.40;;;21.00;99.90;;;;;;4982760;28;20477;-52
2021/06/05 06:33:38;;;;;;;6.83;6.23;;;21.10;99.90;;;;;;4998299;28;20796;-49
2021/06/05 06:36:05;;;;;;;5.60;4.40;;;21.10;99.90;;;;;;4995644;28;20458;-53
2021/06/05 06:38:35;;;;;;;13.40;5.93;;;21.30;99.90;;;;;;4992936;28;20520;-49
2021/06/05 06:41:05;;;;;;;5.67;5.03;;;21.40;99.90;;;;;;4994551;28;20461;-53
2021/06/05 06:43:32;;;;;;;7.83;5.33;;;21.40;99.90;;;;;;4994448;28;20449;-52
2021/06/05 06:46:01;;;;;;;5.80;5.20;;;21.50;99.90;;;;;;4993818;28;20772;-50
2021/06/05 06:48:28;;;;;;;10.27;6.10;;;21.60;99.90;;;;;;4994543;28;20457;-50
2021/06/05 06:50:55;;;;;;;6.53;5.67;;;21.70;99.90;;;;;;4994526;28;20462;-51
2021/06/05 06:53:21;;;;;;;6.17;5.23;;;21.80;99.90;;;;;;4994445;28;20455;-51
2021/06/05 06:55:48;;;;;;;6.33;5.23;;;22.00;99.90;;;;;;4994264;28;20457;-50
2021/06/05 06:58:15;;;;;;;8.23;5.97;;;22.20;99.90;;;;;;4994351;28;20916;-52
2021/06/05 07:00:44;;;;;;;5.90;5.40;;;22.30;99.90;;;;;;4994034;28;20481;-50
2021/06/05 07:03:11;;;;;;;8.13;5.80;;;22.50;99.90;;;;;;4993927;28;20916;-51
2021/06/05 07:05:37;;;;;;;8.20;5.33;;;22.70;99.90;;;;;;4994230;28;20783;-51
2021/06/05 07:08:09;;;;;;;6.27;5.67;;;22.90;99.90;;;;;;4994771;28;20508;-52
2021/06/05 07:10:36;;;;;;;6.20;5.43;;;23.10;99.90;;;;;;4993955;28;20940;-52
2021/06/05 07:13:03;;;;;;;7.47;6.30;;;23.40;99.90;;;;;;4994056;28;20481;-50
2021/06/05 07:15:30;;;;;;;6.20;5.30;;;23.70;99.90;;;;;;4994286;28;20441;-52
2021/06/05 07:17:56;;;;;;;11.60;9.03;;;24.20;99.90;;;;;;4993989;28;20454;-55
2021/06/05 07:20:35;;;;;;;7.17;6.47;;;25.10;99.90;;;;;;4993866;28;20481;-52
2021/06/05 07:23:02;;;;;;;5.93;5.43;;;26.50;99.90;;;;;;4994275;28;20445;-53
2021/06/05 07:25:32;;;;;;;6.07;5.57;;;28.00;96.90;;;;;;4994062;28;20462;-50
2021/06/05 07:28:17;;;;;;;7.50;5.87;;;29.50;89.40;;;;;;4993890;28;20456;-53
2021/06/05 07:30:45;;;;;;;6.20;5.60;;;30.80;79.50;;;;;;4990155;28;20949;-50
2021/06/05 07:33:11;;;;;;;6.97;6.13;;;32.10;68.90;;;;;;4974457;28;20451;-50
2021/06/05 07:35:38;;;;;;;7.03;6.37;;;33.10;62.10;;;;;;4974510;28;20455;-52
2021/06/05 07:38:04;;;;;;;6.53;6.03;;;33.90;57.60;;;;;;4973944;28;20790;-49
2021/06/05 07:40:36;;;;;;;7.63;6.93;;;34.60;54.20;;;;;;4974189;28;20479;-53
2021/06/05 07:43:03;;;;;;;7.20;5.00;;;35.20;51.40;;;;;;4974231;28;20455;-51
2021/06/05 07:45:30;;;;;;;7.97;6.90;;;35.60;49.20;;;;;;4974353;28;20489;-53
2021/06/05 07:47:58;;;;;;;7.30;6.43;;;35.90;48.30;;;;;;4974656;28;20529;-53
2021/06/05 07:50:24;;;;;;;12.40;7.43;;;36.00;47.30;;;;;;4974576;28;20446;-54
2021/06/05 07:52:51;;;;;;;5.90;5.40;;;36.40;46.10;;;;;;4974086;28;20501;-53
2021/06/05 07:55:17;;;;;;;6.43;5.80;;;36.60;45.10;;;;;;4970120;28;20917;-54
2021/06/05 07:57:44;;;;;;;5.47;4.97;;;37.00;44.00;;;;;;4964012;28;20467;-52
2021/06/05 08:00:15;;;;;;;8.80;5.70;;;37.40;43.10;;;;;;4966653;28;20809;-49
2021/06/05 08:02:41;;;;;;;5.53;5.13;;;37.60;42.10;;;;;;4968517;28;20443;-49
2021/06/05 08:05:11;;;;;;;6.03;5.53;;;37.90;41.10;;;;;;4958206;28;20454;-52
2021/06/05 08:07:37;;;;;;;5.93;5.43;;;38.10;41.20;;;;;;4964422;28;20462;-50
2021/06/05 08:10:06;;;;;;;5.40;4.90;;;38.40;40.30;;;;;;4967204;28;20443;-50
2021/06/05 08:12:33;;;;;;;5.20;4.80;;;38.60;39.80;;;;;;4965993;28;20488;-51
2021/06/05 08:14:59;;;;;;;6.13;5.63;;;38.80;38.80;;;;;;4969165;28;20456;-52
2021/06/05 08:17:26;;;;;;;6.10;5.50;;;38.70;39.30;;;;;;4967294;28;20450;-51
2021/06/05 08:19:53;;;;;;;6.93;6.33;;;38.90;38.90;;;;;;4968121;28;20505;-53
2021/06/05 08:22:23;;;;;;;5.40;5.00;;;39.00;38.40;;;;;;4966701;28;20785;-49
2021/06/05 08:24:49;;;;;;;5.53;5.13;;;39.10;37.90;;;;;;4969258;28;20439;-51
2021/06/05 08:27:16;;;;;;;5.27;4.87;;;39.20;37.80;;;;;;4967337;28;20455;-52
2021/06/05 08:29:42;;;;;;;7.33;6.00;;;39.30;37.40;;;;;;4967939;28;20439;-53
2021/06/05 08:32:08;;;;;;;5.83;5.30;;;39.20;37.40;;;;;;4977504;28;20490;-54
2021/06/05 08:34:34;;;;;;;5.40;5.00;;;39.20;37.10;;;;;;4986980;28;20450;-59
2021/06/05 08:37:01;;;;;;;4.90;4.50;;;39.00;37.10;;;;;;4985817;28;20462;-54
2021/06/05 08:39:28;;;;;;;5.60;5.20;;;38.70;37.40;;;;;;4984601;28;20482;-55
2021/06/05 08:41:59;;;;;;;5.07;4.63;;;38.70;37.50;;;;;;4985534;28;20442;-52
2021/06/05 08:44:34;;;;;;;4.97;4.47;;;38.60;37.60;;;;;;4984577;28;20497;-53
2021/06/05 08:47:03;;;;;;;9.73;5.27;;;38.70;38.00;;;;;;4976914;28;20415;-50
2021/06/05 08:49:33;;;;;;;5.30;4.67;;;38.70;37.40;;;;;;4976733;28;20443;-52
2021/06/05 08:52:06;;;;;;;4.30;4.00;;;38.60;37.10;;;;;;4976888;28;20517;-54
2021/06/05 08:54:41;;;;;;;4.70;4.40;;;38.70;37.30;;;;;;4976928;28;20439;-52
2021/06/05 08:57:15;;;;;;;5.00;4.60;;;38.60;36.80;;;;;;4968778;28;20454;-47
2021/06/05 08:59:42;;;;;;;5.13;4.73;;;38.60;36.60;;;;;;4976529;28;20467;-50
2021/06/05 09:02:09;;;;;;;4.40;4.10;;;38.80;36.70;;;;;;4976733;28;20451;-54
2021/06/05 09:04:38;;;;;;;4.47;4.07;;;38.70;36.70;;;;;;4977362;28;20478;-51
2021/06/05 09:07:06;;;;;;;5.03;4.63;;;38.70;36.70;;;;;;4976785;28;20833;-54
2021/06/05 09:09:36;;;;;;;6.33;5.80;;;38.50;37.00;;;;;;4975831;28;20930;-52
2021/06/05 09:12:13;;;;;;;5.60;5.20;;;38.30;36.80;;;;;;4976722;28;20440;-52
2021/06/05 09:14:39;;;;;;;5.57;5.07;;;38.00;37.40;;;;;;4976680;28;20450;-53
2021/06/05 09:17:15;;;;;;;5.50;4.67;;;37.60;37.70;;;;;;4976539;28;21009;-52
2021/06/05 09:19:57;;;;;;;8.23;4.97;;;37.40;38.40;;;;;;4976262;28;20487;-53
2021/06/05 09:22:23;;;;;;;5.43;4.43;;;37.30;38.60;;;;;;4976252;28;20862;-52
2021/06/05 09:24:52;;;;;;;5.80;4.90;;;37.50;38.40;;;;;;4976323;28;20455;-54
2021/06/05 09:27:23;;;;;;;5.10;4.53;;;37.60;38.00;;;;;;4975948;28;21045;-52
2021/06/05 09:29:53;;;;;;;5.13;4.63;;;37.80;38.00;;;;;;4976158;28;20458;-54
2021/06/05 09:32:21;;;;;;;5.47;4.97;;;37.70;38.30;;;;;;4975818;28;20483;-54
2021/06/05 09:34:50;;;;;;;5.93;5.30;;;37.50;38.10;;;;;;4975836;28;20482;-53
2021/06/05 09:37:28;;;;;;;5.43;4.50;;;37.40;38.40;;;;;;4976004;28;20461;-52
2021/06/05 09:40:08;;;;;;;5.40;4.90;;;37.40;38.50;;;;;;4976093;28;20463;-54
2021/06/05 09:42:39;;;;;;;6.10;4.30;;;37.40;38.40;;;;;;4975896;28;20458;-53
2021/06/05 09:45:09;;;;;;;5.17;4.67;;;37.40;38.00;;;;;;4976073;28;20435;-54
2021/06/05 09:47:35;;;;;;;5.80;5.27;;;37.50;38.10;;;;;;4975799;28;20462;-53
2021/06/05 09:50:20;;;;;;;5.63;4.90;;;37.50;38.20;;;;;;4975588;28;20451;-54
2021/06/05 09:52:46;;;;;;;7.10;4.60;;;37.10;38.60;;;;;;4979914;28;20548;-53
2021/06/05 09:55:36;;;;;;;6.93;4.50;;;37.10;38.80;;;;;;4984659;28;20506;-52
2021/06/05 09:58:08;;;;;;;5.03;4.50;;;37.20;38.80;;;;;;4976340;28;20490;-50
2021/06/05 10:00:40;;;;;;;5.80;5.20;;;37.60;38.20;;;;;;4975402;28;20498;-48
2021/06/05 10:03:18;;;;;;;6.30;5.23;;;37.80;37.40;;;;;;4975231;28;20471;-49
2021/06/05 10:05:46;;;;;;;5.83;5.33;;;38.20;37.30;;;;;;4975673;28;20431;-53
2021/06/05 10:08:32;;;;;;;9.23;7.80;;;38.20;38.00;;;;;;4975442;28;20463;-52
2021/06/05 10:11:09;;;;;;;7.43;6.73;;;38.00;38.40;;;;;;4981771;28;20488;-54
2021/06/05 10:13:40;;;;;;;7.70;5.83;;;37.60;38.80;;;;;;4995085;28;20761;-48
2021/06/05 10:16:10;;;;;;;5.30;4.67;;;37.40;38.30;;;;;;4994576;28;20939;-53
2021/06/05 10:18:41;;;;;;;6.17;5.57;;;37.00;39.00;;;;;;4994912;28;20515;-51
2021/06/05 10:21:13;;;;;;;5.33;4.70;;;36.60;39.10;;;;;;4993754;28;20551;-55
2021/06/05 10:23:43;;;;;;;7.87;6.47;;;36.50;39.80;;;;;;4994841;28;20446;-55
2021/06/05 10:26:21;;;;;;;6.23;4.80;;;36.40;39.60;;;;;;4994745;28;20780;-54
2021/06/05 10:28:53;;;;;;;5.83;5.23;;;36.10;39.00;;;;;;4994518;28;20888;-54
2021/06/05 10:31:22;;;;;;;7.27;6.67;;;36.00;40.30;;;;;;4994225;28;20478;-52
2021/06/05 10:33:52;;;;;;;10.27;6.93;;;35.70;40.60;;;;;;4994369;28;20457;-53
2021/06/05 10:36:22;;;;;;;9.83;7.00;;;35.40;41.60;;;;;;4994543;28;20464;-55
2021/06/05 10:38:50;;;;;;;8.27;5.33;;;35.30;41.90;;;;;;4994500;28;20500;-55
